sensor_id;sensor_type;location;lat;lon;timestamp;pressure;altitude;pressure_sealevel;temperature;humidity
78210;BME280;67485;48.816;9.930;2024-03-02T00:00:51;95732.34;;;5.79;100.00
78210;BME280;67485;48.816;9.930;2024-03-02T00:03:18;95729.06;;;5.73;100.00
78210;BME280;67485;48.816;9.930;2024-03-02T00:05:49;95735.13;;;5.72;100.00
78210;BME280;67485;48.816;9.930;2024-03-02T00:08:22;95730.88;;;5.69;100.00
78210;BME280;67485;48.816;9.930;2024-03-02T00:10:51;95736.16;;;5.66;100.00
78210;BME280;67485;48.816;9.930;2024-03-02T00:13:20;95730.97;;;5.64;100.00
78210;BME280;67485;48.816;9.930;2024-03-02T00:15:52;95740.50;;;5.65;100.00
78210;BME280;67485;48.816;9.930;2024-03-02T00:18:41;95736.13;;;5.67;100.00
78210;BME280;67485;48.816;9.930;2024-03-02T00:21:06;95737.94;;;5.64;100.00
78210;BME280;67485;48.816;9.930;2024-03-02T00:23:35;95742.19;;;5.66;100.00
78210;BME280;67485;48.816;9.930;2024-03-02T00:26:01;95736.91;;;5.69;100.00
78210;BME280;67485;48.816;9.930;2024-03-02T00:28:30;95735.06;;;5.75;100.00
78210;BME280;67485;48.816;9.930;2024-03-02T00:33:30;95731.56;;;5.76;100.00
78210;BME280;67485;48.816;9.930;2024-03-02T00:35:57;95729.72;;;5.81;100.00
78210;BME280;67485;48.816;9.930;2024-03-02T00:38:23;95737.47;;;5.82;100.00
78210;BME280;67485;48.816;9.930;2024-03-02T00:40:49;95740.97;;;5.81;100.00
78210;BME280;67485;48.816;9.930;2024-03-02T00:43:43;95743.53;;;5.83;100.00
78210;BME280;67485;48.816;9.930;2024-03-02T00:46:18;95742.59;;;5.85;100.00
78210;BME280;67485;48.816;9.930;2024-03-02T00:48:58;95734.75;;;5.87;99.87
78210;BME280;67485;48.816;9.930;2024-03-02T00:51:26;95735.66;;;5.84;100.00
78210;BME280;67485;48.816;9.930;2024-03-02T00:53:53;95736.59;;;5.82;99.66
78210;BME280;67485;48.816;9.930;2024-03-02T00:56:22;95745.31;;;5.81;100.00
78210;BME280;67485;48.816;9.930;2024-03-02T00:58:49;95739.28;;;5.79;100.00
78210;BME280;67485;48.816;9.930;2024-03-02T01:01:14;95747.09;;;5.79;99.79
78210;BME280;67485;48.816;9.930;2024-03-02T01:03:41;95751.50;;;5.75;99.80
78210;BME280;67485;48.816;9.930;2024-03-02T01:06:08;95751.47;;;5.77;100.00
78210;BME280;67485;48.816;9.930;2024-03-02T01:08:35;95758.56;;;5.70;100.00
78210;BME280;67485;48.816;9.930;2024-03-02T01:11:01;95756.97;;;5.64;100.00
78210;BME280;67485;48.816;9.930;2024-03-02T01:13:27;95756.22;;;5.59;100.00
78210;BME280;67485;48.816;9.930;2024-03-02T01:15:53;95763.22;;;5.57;100.00
78210;BME280;67485;48.816;9.930;2024-03-02T01:18:19;95761.50;;;5.56;100.00
78210;BME280;67485;48.816;9.930;2024-03-02T01:20:44;95772.09;;;5.47;100.00
78210;BME280;67485;48.816;9.930;2024-03-02T01:23:10;95770.41;;;5.46;100.00
78210;BME280;67485;48.816;9.930;2024-03-02T01:25:36;95763.56;;;5.42;100.00
78210;BME280;67485;48.816;9.930;2024-03-02T01:28:02;95767.06;;;5.41;100.00
78210;BME280;67485;48.816;9.930;2024-03-02T01:30:27;95766.13;;;5.45;100.00
78210;BME280;67485;48.816;9.930;2024-03-02T01:32:53;95767.91;;;5.41;100.00
78210;BME280;67485;48.816;9.930;2024-03-02T01:35:19;95760.78;;;5.51;100.00
78210;BME280;67485;48.816;9.930;2024-03-02T01:37:44;95762.47;;;5.52;100.00
78210;BME280;67485;48.816;9.930;2024-03-02T01:40:10;95768.47;;;5.54;100.00
78210;BME280;67485;48.816;9.930;2024-03-02T01:42:37;95759.78;;;5.55;100.00
78210;BME280;67485;48.816;9.930;2024-03-02T01:45:05;95759.06;;;5.50;100.00
78210;BME280;67485;48.816;9.930;2024-03-02T01:47:31;95764.31;;;5.47;100.00
78210;BME280;67485;48.816;9.930;2024-03-02T01:49:58;95748.06;;;5.39;100.00
78210;BME280;67485;48.816;9.930;2024-03-02T01:52:24;95747.22;;;5.36;100.00
78210;BME280;67485;48.816;9.930;2024-03-02T01:54:49;95741.06;;;5.41;100.00
78210;BME280;67485;48.816;9.930;2024-03-02T01:57:15;95748.88;;;5.41;100.00
78210;BME280;67485;48.816;9.930;2024-03-02T01:59:41;95747.13;;;5.41;100.00
78210;BME280;67485;48.816;9.930;2024-03-02T02:02:07;95738.47;;;5.41;100.00
78210;BME280;67485;48.816;9.930;2024-03-02T02:04:33;95741.94;;;5.41;100.00
78210;BME280;67485;48.816;9.930;2024-03-02T02:06:59;95741.19;;;5.36;100.00
78210;BME280;67485;48.816;9.930;2024-03-02T02:09:25;95737.78;;;5.34;100.00
78210;BME280;67485;48.816;9.930;2024-03-02T02:11:51;95732.47;;;5.39;100.00
78210;BME280;67485;48.816;9.930;2024-03-02T02:14:17;95741.22;;;5.34;100.00
78210;BME280;67485;48.816;9.930;2024-03-02T02:16:43;95725.66;;;5.33;100.00
78210;BME280;67485;48.816;9.930;2024-03-02T02:19:08;95731.03;;;5.25;100.00
78210;BME280;67485;48.816;9.930;2024-03-02T02:21:35;95733.81;;;5.17;100.00
78210;BME280;67485;48.816;9.930;2024-03-02T02:24:00;95727.84;;;5.14;100.00
78210;BME280;67485;48.816;9.930;2024-03-02T02:26:29;95724.38;;;5.15;100.00
78210;BME280;67485;48.816;9.930;2024-03-02T02:28:55;95726.00;;;5.19;100.00
78210;BME280;67485;48.816;9.930;2024-03-02T02:31:20;95727.56;;;5.26;100.00
78210;BME280;67485;48.816;9.930;2024-03-02T02:33:46;95729.41;;;5.21;100.00
78210;BME280;67485;48.816;9.930;2024-03-02T02:36:12;95722.50;;;5.20;100.00
78210;BME280;67485;48.816;9.930;2024-03-02T02:38:40;95729.47;;;5.18;100.00
78210;BME280;67485;48.816;9.930;2024-03-02T02:41:09;95729.41;;;5.21;100.00
78210;BME280;67485;48.816;9.930;2024-03-02T02:43:35;95717.81;;;5.34;100.00
78210;BME280;67485;48.816;9.930;2024-03-02T02:46:00;95718.75;;;5.33;100.00
78210;BME280;67485;48.816;9.930;2024-03-02T02:48:26;95724.13;;;5.24;100.00
78210;BME280;67485;48.816;9.930;2024-03-02T02:50:51;95713.84;;;5.21;100.00
78210;BME280;67485;48.816;9.930;2024-03-02T02:53:17;95715.69;;;5.16;100.00
78210;BME280;67485;48.816;9.930;2024-03-02T02:55:43;95710.69;;;5.07;100.00
78210;BME280;67485;48.816;9.930;2024-03-02T02:58:09;95709.75;;;5.09;100.00
78210;BME280;67485;48.816;9.930;2024-03-02T03:00:35;95707.03;;;5.15;100.00
78210;BME280;67485;48.816;9.930;2024-03-02T03:03:02;95708.78;;;5.15;100.00
78210;BME280;67485;48.816;9.930;2024-03-02T03:05:28;95709.09;;;5.01;100.00
78210;BME280;67485;48.816;9.930;2024-03-02T03:07:53;95704.00;;;4.96;100.00
78210;BME280;67485;48.816;9.930;2024-03-02T03:10:19;95709.97;;;5.00;100.00
78210;BME280;67485;48.816;9.930;2024-03-02T03:12:47;95711.72;;;4.99;100.00
78210;BME280;67485;48.816;9.930;2024-03-02T03:15:13;95709.09;;;4.99;100.00
78210;BME280;67485;48.816;9.930;2024-03-02T03:17:40;95700.47;;;4.99;100.00
78210;BME280;67485;48.816;9.930;2024-03-02T03:20:06;95703.25;;;4.91;100.00
78210;BME280;67485;48.816;9.930;2024-03-02T03:22:35;95698.78;;;4.98;100.00
78210;BME280;67485;48.816;9.930;2024-03-02T03:25:01;95698.66;;;5.02;100.00
78210;BME280;67485;48.816;9.930;2024-03-02T03:27:27;95707.34;;;5.01;100.00
78210;BME280;67485;48.816;9.930;2024-03-02T03:29:53;95712.72;;;4.94;100.00
78210;BME280;67485;48.816;9.930;2024-03-02T03:32:19;95712.00;;;4.85;100.00
78210;BME280;67485;48.816;9.930;2024-03-02T03:34:45;95707.72;;;4.84;100.00
78210;BME280;67485;48.816;9.930;2024-03-02T03:37:11;95706.94;;;4.81;100.00
78210;BME280;67485;48.816;9.930;2024-03-02T03:39:37;95711.31;;;4.79;100.00
78210;BME280;67485;48.816;9.930;2024-03-02T03:42:03;95712.16;;;4.79;100.00
78210;BME280;67485;48.816;9.930;2024-03-02T03:44:28;95708.03;;;4.69;100.00
78210;BME280;67485;48.816;9.930;2024-03-02T03:46:54;95709.81;;;4.67;100.00
78210;BME280;67485;48.816;9.930;2024-03-02T03:49:20;95712.56;;;4.61;100.00
78210;BME280;67485;48.816;9.930;2024-03-02T03:51:46;95722.88;;;4.64;100.00
78210;BME280;67485;48.816;9.930;2024-03-02T03:54:11;95725.25;;;4.75;100.00
78210;BME280;67485;48.816;9.930;2024-03-02T03:56:37;95732.19;;;4.73;100.00
78210;BME280;67485;48.816;9.930;2024-03-02T03:59:03;95729.63;;;4.71;100.00
78210;BME280;67485;48.816;9.930;2024-03-02T04:01:30;95727.84;;;4.73;100.00
78210;BME280;67485;48.816;9.930;2024-03-02T04:03:57;95721.81;;;4.73;100.00
78210;BME280;67485;48.816;9.930;2024-03-02T04:06:23;95720.94;;;4.74;100.00
78210;BME280;67485;48.816;9.930;2024-03-02T04:08:49;95720.91;;;4.75;100.00
78210;BME280;67485;48.816;9.930;2024-03-02T04:11:15;95719.84;;;4.84;100.00
78210;BME280;67485;48.816;9.930;2024-03-02T04:13:40;95726.53;;;4.94;100.00
78210;BME280;67485;48.816;9.930;2024-03-02T04:16:06;95730.00;;;4.93;100.00
78210;BME280;67485;48.816;9.930;2024-03-02T04:18:32;95724.69;;;4.99;100.00
78210;BME280;67485;48.816;9.930;2024-03-02T04:20:58;95732.81;;;4.84;100.00
78210;BME280;67485;48.816;9.930;2024-03-02T04:23:25;95730.44;;;4.75;100.00
78210;BME280;67485;48.816;9.930;2024-03-02T04:25:51;95728.63;;;4.77;100.00
78210;BME280;67485;48.816;9.930;2024-03-02T04:28:17;95725.03;;;4.84;100.00
78210;BME280;67485;48.816;9.930;2024-03-02T04:30:42;95732.13;;;4.76;100.00
78210;BME280;67485;48.816;9.930;2024-03-02T04:33:08;95722.59;;;4.76;100.00
78210;BME280;67485;48.816;9.930;2024-03-02T04:35:36;95729.34;;;4.85;100.00
78210;BME280;67485;48.816;9.930;2024-03-02T04:38:02;95738.75;;;4.89;100.00
78210;BME280;67485;48.816;9.930;2024-03-02T04:40:27;95736.13;;;4.92;100.00
78210;BME280;67485;48.816;9.930;2024-03-02T04:42:53;95729.13;;;4.94;100.00
78210;BME280;67485;48.816;9.930;2024-03-02T04:45:19;95732.47;;;4.99;100.00
78210;BME280;67485;48.816;9.930;2024-03-02T04:47:45;95729.59;;;5.12;100.00
78210;BME280;67485;48.816;9.930;2024-03-02T04:50:11;95734.78;;;5.13;100.00
78210;BME280;67485;48.816;9.930;2024-03-02T04:52:36;95732.22;;;5.12;100.00
78210;BME280;67485;48.816;9.930;2024-03-02T04:55:03;95735.59;;;5.15;100.00
78210;BME280;67485;48.816;9.930;2024-03-02T04:57:47;95738.00;;;5.25;100.00
78210;BME280;67485;48.816;9.930;2024-03-02T05:00:13;95736.09;;;5.31;100.00
78210;BME280;67485;48.816;9.930;2024-03-02T05:02:39;95735.97;;;5.38;100.00
78210;BME280;67485;48.816;9.930;2024-03-02T05:05:05;95737.66;;;5.39;100.00
78210;BME280;67485;48.816;9.930;2024-03-02T05:07:31;95734.16;;;5.41;100.00
78210;BME280;67485;48.816;9.930;2024-03-02T05:09:57;95731.44;;;5.46;100.00
78210;BME280;67485;48.816;9.930;2024-03-02T05:12:22;95731.44;;;5.46;100.00
78210;BME280;67485;48.816;9.930;2024-03-02T05:15:01;95734.06;;;5.44;100.00
78210;BME280;67485;48.816;9.930;2024-03-02T05:17:27;95732.34;;;5.45;99.97
78210;BME280;67485;48.816;9.930;2024-03-02T05:19:53;95738.31;;;5.48;100.00
78210;BME280;67485;48.816;9.930;2024-03-02T05:22:19;95734.03;;;5.46;99.88
78210;BME280;67485;48.816;9.930;2024-03-02T05:24:44;95728.06;;;5.41;100.00
78210;BME280;67485;48.816;9.930;2024-03-02T05:27:10;95735.72;;;5.47;99.38
78210;BME280;67485;48.816;9.930;2024-03-02T05:29:35;95732.19;;;5.51;98.74
78210;BME280;67485;48.816;9.930;2024-03-02T05:32:01;95740.50;;;5.65;96.59
78210;BME280;67485;48.816;9.930;2024-03-02T05:34:27;95719.78;;;5.62;96.23
78210;BME280;67485;48.816;9.930;2024-03-02T05:36:52;95733.41;;;5.71;95.40
78210;BME280;67485;48.816;9.930;2024-03-02T05:39:18;95728.31;;;5.67;95.15
78210;BME280;67485;48.816;9.930;2024-03-02T05:41:44;95723.91;;;5.71;95.30
78210;BME280;67485;48.816;9.930;2024-03-02T05:44:10;95730.03;;;5.68;95.34
78210;BME280;67485;48.816;9.930;2024-03-02T05:46:35;95731.72;;;5.69;94.86
78210;BME280;67485;48.816;9.930;2024-03-02T05:49:01;95729.25;;;5.65;94.66
78210;BME280;67485;48.816;9.930;2024-03-02T05:51:27;95731.91;;;5.62;95.28
78210;BME280;67485;48.816;9.930;2024-03-02T05:53:52;95729.09;;;5.71;93.66
78210;BME280;67485;48.816;9.930;2024-03-02T05:56:18;95729.88;;;5.75;93.33
78210;BME280;67485;48.816;9.930;2024-03-02T05:58:43;95730.56;;;5.81;92.97
78210;BME280;67485;48.816;9.930;2024-03-02T06:01:09;95739.28;;;5.79;93.24
78210;BME280;67485;48.816;9.930;2024-03-02T06:03:35;95731.50;;;5.79;93.75
78210;BME280;67485;48.816;9.930;2024-03-02T06:06:00;95739.28;;;5.79;93.48
78210;BME280;67485;48.816;9.930;2024-03-02T06:08:26;95741.75;;;5.85;93.39
78210;BME280;67485;48.816;9.930;2024-03-02T06:10:52;95742.69;;;5.82;93.99
78210;BME280;67485;48.816;9.930;2024-03-02T06:13:17;95735.00;;;5.78;93.80
78210;BME280;67485;48.816;9.930;2024-03-02T06:15:43;95741.97;;;5.76;93.89
78210;BME280;67485;48.816;9.930;2024-03-02T06:18:08;95742.97;;;5.70;94.41
78210;BME280;67485;48.816;9.930;2024-03-02T06:20:34;95745.63;;;5.68;95.42
78210;BME280;67485;48.816;9.930;2024-03-02T06:23:00;95753.53;;;5.64;95.82
78210;BME280;67485;48.816;9.930;2024-03-02T06:25:26;95750.09;;;5.63;96.15
78210;BME280;67485;48.816;9.930;2024-03-02T06:27:52;95750.16;;;5.60;96.10
78210;BME280;67485;48.816;9.930;2024-03-02T06:30:17;95751.81;;;5.63;95.70
78210;BME280;67485;48.816;9.930;2024-03-02T06:32:43;95756.94;;;5.66;95.19
78210;BME280;67485;48.816;9.930;2024-03-02T06:35:09;95759.50;;;5.67;95.41
78210;BME280;67485;48.816;9.930;2024-03-02T06:37:36;95756.03;;;5.68;94.69
78210;BME280;67485;48.816;9.930;2024-03-02T06:40:02;95768.09;;;5.69;94.57
78210;BME280;67485;48.816;9.930;2024-03-02T06:42:28;95761.13;;;5.72;95.17
78210;BME280;67485;48.816;9.930;2024-03-02T06:44:59;95759.34;;;5.74;95.60
78210;BME280;67485;48.816;9.930;2024-03-02T06:47:24;95766.19;;;5.78;95.68
78210;BME280;67485;48.816;9.930;2024-03-02T06:49:50;95763.59;;;5.78;96.22
78210;BME280;67485;48.816;9.930;2024-03-02T06:52:16;95766.19;;;5.78;96.04
78210;BME280;67485;48.816;9.930;2024-03-02T06:54:42;95760.88;;;5.82;96.43
78210;BME280;67485;48.816;9.930;2024-03-02T06:57:07;95760.75;;;5.87;96.13
78210;BME280;67485;48.816;9.930;2024-03-02T06:59:33;95761.63;;;5.88;95.69
78210;BME280;67485;48.816;9.930;2024-03-02T07:01:59;95766.72;;;5.92;95.66
78210;BME280;67485;48.816;9.930;2024-03-02T07:04:25;95767.38;;;6.00;95.66
78210;BME280;67485;48.816;9.930;2024-03-02T07:06:50;95761.97;;;6.10;94.31
78210;BME280;67485;48.816;9.930;2024-03-02T07:09:17;95762.53;;;6.20;93.66
78210;BME280;67485;48.816;9.930;2024-03-02T07:11:42;95772.69;;;6.30;93.14
78210;BME280;67485;48.816;9.930;2024-03-02T07:14:08;95771.53;;;6.42;91.93
78210;BME280;67485;48.816;9.930;2024-03-02T07:16:37;95778.22;;;6.51;91.03
78210;BME280;67485;48.816;9.930;2024-03-02T07:19:03;95774.63;;;6.55;90.82
78210;BME280;67485;48.816;9.930;2024-03-02T07:21:29;95769.19;;;6.63;91.18
78210;BME280;67485;48.816;9.930;2024-03-02T07:23:55;95780.13;;;6.76;90.11
78210;BME280;67485;48.816;9.930;2024-03-02T07:26:20;95778.97;;;6.86;88.57
78210;BME280;67485;48.816;9.930;2024-03-02T07:28:46;95783.81;;;6.98;88.73
78210;BME280;67485;48.816;9.930;2024-03-02T07:31:13;95781.84;;;7.07;87.93
78210;BME280;67485;48.816;9.930;2024-03-02T07:33:39;95780.91;;;7.09;86.24
78210;BME280;67485;48.816;9.930;2024-03-02T07:36:05;95778.34;;;7.08;86.33
78210;BME280;67485;48.816;9.930;2024-03-02T07:38:31;95778.34;;;7.08;86.95
78210;BME280;67485;48.816;9.930;2024-03-02T07:40:59;95773.03;;;7.11;87.84
78210;BME280;67485;48.816;9.930;2024-03-02T07:43:25;95775.75;;;7.08;87.76
78210;BME280;67485;48.816;9.930;2024-03-02T07:45:51;95769.66;;;7.09;87.58
78210;BME280;67485;48.816;9.930;2024-03-02T07:48:17;95764.16;;;7.18;87.70
78210;BME280;67485;48.816;9.930;2024-03-02T07:50:43;95771.69;;;7.27;87.88
78210;BME280;67485;48.816;9.930;2024-03-02T07:53:09;95768.91;;;7.34;88.17
78210;BME280;67485;48.816;9.930;2024-03-02T07:55:34;95772.13;;;7.42;87.51
78210;BME280;67485;48.816;9.930;2024-03-02T07:58:01;95770.91;;;7.54;87.92
78210;BME280;67485;48.816;9.930;2024-03-02T08:00:27;95771.84;;;7.51;88.24
78210;BME280;67485;48.816;9.930;2024-03-02T08:02:53;95778.47;;;7.61;88.27
78210;BME280;67485;48.816;9.930;2024-03-02T08:05:19;95775.03;;;7.59;87.41
78210;BME280;67485;48.816;9.930;2024-03-02T08:07:45;95775.91;;;7.60;87.04
78210;BME280;67485;48.816;9.930;2024-03-02T08:10:12;95778.34;;;7.65;86.84
78210;BME280;67485;48.816;9.930;2024-03-02T08:12:37;95772.94;;;7.71;86.27
78210;BME280;67485;48.816;9.930;2024-03-02T08:15:04;95774.34;;;7.81;84.95
78210;BME280;67485;48.816;9.930;2024-03-02T08:17:30;95774.91;;;7.91;84.18
78210;BME280;67485;48.816;9.930;2024-03-02T08:19:56;95772.34;;;7.89;83.16
78210;BME280;67485;48.816;9.930;2024-03-02T08:22:23;95774.72;;;7.97;82.95
78210;BME280;67485;48.816;9.930;2024-03-02T08:24:51;95770.44;;;7.94;82.43
78210;BME280;67485;48.816;9.930;2024-03-02T08:27:17;95769.41;;;8.00;82.69
78210;BME280;67485;48.816;9.930;2024-03-02T08:29:42;95765.84;;;8.03;81.96
78210;BME280;67485;48.816;9.930;2024-03-02T08:32:11;95766.94;;;7.95;81.72
78210;BME280;67485;48.816;9.930;2024-03-02T08:34:37;95763.78;;;8.13;81.93
78210;BME280;67485;48.816;9.930;2024-03-02T08:37:02;95762.13;;;8.35;82.01
78210;BME280;67485;48.816;9.930;2024-03-02T08:39:29;95771.56;;;8.39;80.22
78210;BME280;67485;48.816;9.930;2024-03-02T08:41:54;95771.78;;;8.58;80.33
78210;BME280;67485;48.816;9.930;2024-03-02T08:44:20;95770.28;;;8.51;80.14
78210;BME280;67485;48.816;9.930;2024-03-02T08:46:47;95771.13;;;8.77;79.39
78210;BME280;67485;48.816;9.930;2024-03-02T08:49:13;95775.91;;;9.13;78.36
78210;BME280;67485;48.816;9.930;2024-03-02T08:51:38;95777.50;;;9.17;77.69
78210;BME280;67485;48.816;9.930;2024-03-02T08:54:04;95773.38;;;9.34;78.08
78210;BME280;67485;48.816;9.930;2024-03-02T08:56:30;95775.47;;;9.70;75.97
78210;BME280;67485;48.816;9.930;2024-03-02T08:58:56;95772.50;;;9.57;74.52
78210;BME280;67485;48.816;9.930;2024-03-02T09:01:22;95768.94;;;9.36;73.24
78210;BME280;67485;48.816;9.930;2024-03-02T09:03:48;95767.38;;;9.32;73.79
78210;BME280;67485;48.816;9.930;2024-03-02T09:06:14;95767.75;;;9.45;73.55
78210;BME280;67485;48.816;9.930;2024-03-02T09:08:43;95775.03;;;9.58;71.84
78210;BME280;67485;48.816;9.930;2024-03-02T09:11:09;95768.09;;;9.57;72.83
78210;BME280;67485;48.816;9.930;2024-03-02T09:13:36;95765.06;;;9.68;72.50
78210;BME280;67485;48.816;9.930;2024-03-02T09:16:01;95765.06;;;9.90;71.96
78210;BME280;67485;48.816;9.930;2024-03-02T09:18:28;95760.63;;;10.13;71.27
78210;BME280;67485;48.816;9.930;2024-03-02T09:20:53;95759.13;;;10.50;70.13
78210;BME280;67485;48.816;9.930;2024-03-02T09:23:19;95764.94;;;10.57;69.30
78210;BME280;67485;48.816;9.930;2024-03-02T09:25:45;95759.44;;;10.82;67.39
78210;BME280;67485;48.816;9.930;2024-03-02T09:28:10;95759.63;;;11.17;65.81
78210;BME280;67485;48.816;9.930;2024-03-02T09:30:36;95761.47;;;11.54;63.90
78210;BME280;67485;48.816;9.930;2024-03-02T09:33:03;95759.25;;;12.00;61.25
78210;BME280;67485;48.816;9.930;2024-03-02T09:35:29;95759.19;;;12.19;59.61
78210;BME280;67485;48.816;9.930;2024-03-02T09:37:55;95751.91;;;13.26;59.33
78210;BME280;67485;48.816;9.930;2024-03-02T09:40:22;95743.53;;;13.84;57.04
78210;BME280;67485;48.816;9.930;2024-03-02T09:42:48;95735.50;;;14.01;54.93
78210;BME280;67485;48.816;9.930;2024-03-02T09:45:27;95737.50;;;14.57;53.83
78210;BME280;67485;48.816;9.930;2024-03-02T09:47:52;95735.00;;;14.25;53.58
78210;BME280;67485;48.816;9.930;2024-03-02T09:50:18;95735.63;;;13.52;55.06
78210;BME280;67485;48.816;9.930;2024-03-02T09:52:48;95736.84;;;13.46;56.30
78210;BME280;67485;48.816;9.930;2024-03-02T09:55:15;95734.78;;;13.67;55.78
78210;BME280;67485;48.816;9.930;2024-03-02T09:57:41;95735.63;;;13.68;55.19
78210;BME280;67485;48.816;9.930;2024-03-02T10:00:08;95738.06;;;13.23;55.64
78210;BME280;67485;48.816;9.930;2024-03-02T10:02:34;95740.34;;;13.13;55.48
78210;BME280;67485;48.816;9.930;2024-03-02T10:04:59;95747.06;;;12.52;55.63
78210;BME280;67485;48.816;9.930;2024-03-02T10:07:25;95745.31;;;12.68;56.00
78210;BME280;67485;48.816;9.930;2024-03-02T10:09:51;95737.78;;;13.11;55.14
78210;BME280;67485;48.816;9.930;2024-03-02T10:12:18;95729.91;;;12.78;57.33
78210;BME280;67485;48.816;9.930;2024-03-02T10:14:44;95740.41;;;12.62;56.32
78210;BME280;67485;48.816;9.930;2024-03-02T10:17:12;95733.38;;;13.12;57.06
78210;BME280;67485;48.816;9.930;2024-03-02T10:19:39;95739.31;;;13.16;55.93
78210;BME280;67485;48.816;9.930;2024-03-02T10:22:06;95734.81;;;12.68;54.66
78210;BME280;67485;48.816;9.930;2024-03-02T10:24:37;95730.97;;;12.58;55.66
78210;BME280;67485;48.816;9.930;2024-03-02T10:27:10;95728.22;;;12.77;55.61
78210;BME280;67485;48.816;9.930;2024-03-02T10:29:39;95729.84;;;12.46;55.31
78210;BME280;67485;48.816;9.930;2024-03-02T10:32:09;95726.94;;;12.17;54.34
78210;BME280;67485;48.816;9.930;2024-03-02T10:34:35;95719.34;;;12.11;55.46
78210;BME280;67485;48.816;9.930;2024-03-02T10:37:01;95720.50;;;12.05;56.35
78210;BME280;67485;48.816;9.930;2024-03-02T10:39:28;95730.56;;;12.14;55.80
78210;BME280;67485;48.816;9.930;2024-03-02T10:41:57;95725.72;;;11.88;55.58
78210;BME280;67485;48.816;9.930;2024-03-02T10:44:25;95723.16;;;11.86;55.61
78210;BME280;67485;48.816;9.930;2024-03-02T10:46:52;95715.81;;;11.93;56.65
78210;BME280;67485;48.816;9.930;2024-03-02T10:49:20;95718.28;;;11.78;56.30
78210;BME280;67485;48.816;9.930;2024-03-02T10:51:47;95714.13;;;11.92;57.06
78210;BME280;67485;48.816;9.930;2024-03-02T10:54:13;95711.63;;;11.71;57.26
78210;BME280;67485;48.816;9.930;2024-03-02T10:56:40;95711.56;;;11.73;56.67
78210;BME280;67485;48.816;9.930;2024-03-02T10:59:13;95700.94;;;11.93;57.33
78210;BME280;67485;48.816;9.930;2024-03-02T11:01:43;95700.03;;;12.63;55.79
78210;BME280;67485;48.816;9.930;2024-03-02T11:04:09;95696.22;;;13.02;53.76
78210;BME280;67485;48.816;9.930;2024-03-02T11:06:40;95701.75;;;13.29;52.65
78210;BME280;67485;48.816;9.930;2024-03-02T11:09:09;95687.38;;;14.87;50.65
78210;BME280;67485;48.816;9.930;2024-03-02T11:11:37;95681.41;;;14.98;48.89
78210;BME280;67485;48.816;9.930;2024-03-02T11:14:07;95684.97;;;15.81;46.55
78210;BME280;67485;48.816;9.930;2024-03-02T11:16:38;95680.47;;;16.10;45.80
78210;BME280;67485;48.816;9.930;2024-03-02T11:19:06;95678.28;;;16.43;45.57
78210;BME280;67485;48.816;9.930;2024-03-02T11:21:36;95666.91;;;16.15;45.41
78210;BME280;67485;48.816;9.930;2024-03-02T11:26:46;95663.72;;;16.10;45.17
78210;BME280;67485;48.816;9.930;2024-03-02T11:32:16;95657.88;;;15.64;44.22
78210;BME280;67485;48.816;9.930;2024-03-02T11:34:44;95651.94;;;16.28;42.81
78210;BME280;67485;48.816;9.930;2024-03-02T11:37:12;95644.63;;;16.70;42.71
78210;BME280;67485;48.816;9.930;2024-03-02T11:39:39;95644.84;;;16.42;42.90
78210;BME280;67485;48.816;9.930;2024-03-02T11:42:08;95633.69;;;17.01;42.51
78210;BME280;67485;48.816;9.930;2024-03-02T11:44:36;95637.75;;;16.29;42.82
78210;BME280;67485;48.816;9.930;2024-03-02T11:47:05;95635.94;;;16.17;42.99
78210;BME280;67485;48.816;9.930;2024-03-02T11:49:44;95628.16;;;16.54;42.80
78210;BME280;67485;48.816;9.930;2024-03-02T11:52:12;95625.88;;;16.99;42.38
78210;BME280;67485;48.816;9.930;2024-03-02T11:54:40;95608.00;;;17.76;42.56
78210;BME280;67485;48.816;9.930;2024-03-02T11:57:06;95610.25;;;16.96;41.65
78210;BME280;67485;48.816;9.930;2024-03-02T11:59:32;95619.13;;;16.95;42.60
78210;BME280;67485;48.816;9.930;2024-03-02T12:01:59;95609.19;;;17.23;42.59
78210;BME280;67485;48.816;9.930;2024-03-02T12:04:25;95598.75;;;17.57;41.63
78210;BME280;67485;48.816;9.930;2024-03-02T12:06:56;95595.91;;;18.43;39.76
78210;BME280;67485;48.816;9.930;2024-03-02T12:09:28;95587.53;;;18.13;40.20
78210;BME280;67485;48.816;9.930;2024-03-02T12:12:04;95599.38;;;18.77;39.49
78210;BME280;67485;48.816;9.930;2024-03-02T12:14:34;95588.16;;;19.63;36.89
78210;BME280;67485;48.816;9.930;2024-03-02T12:17:01;95580.00;;;19.76;37.04
78210;BME280;67485;48.816;9.930;2024-03-02T12:19:27;95584.56;;;18.75;37.74
78210;BME280;67485;48.816;9.930;2024-03-02T12:21:56;95583.25;;;18.80;37.64
78210;BME280;67485;48.816;9.930;2024-03-02T12:24:22;95573.94;;;18.75;38.22
78210;BME280;67485;48.816;9.930;2024-03-02T12:26:51;95571.97;;;19.22;39.55
78210;BME280;67485;48.816;9.930;2024-03-02T12:29:20;95576.72;;;18.28;38.53
78210;BME280;67485;48.816;9.930;2024-03-02T12:31:48;95571.97;;;18.09;39.73
78210;BME280;67485;48.816;9.930;2024-03-02T12:34:23;95572.72;;;17.51;41.29
78210;BME280;67485;48.816;9.930;2024-03-02T12:36:49;95566.00;;;18.41;41.05
78210;BME280;67485;48.816;9.930;2024-03-02T12:39:19;95560.88;;;18.15;38.92
78210;BME280;67485;48.816;9.930;2024-03-02T12:41:49;95571.31;;;17.10;41.01
78210;BME280;67485;48.816;9.930;2024-03-02T12:44:19;95571.09;;;16.76;43.98
78210;BME280;67485;48.816;9.930;2024-03-02T12:46:46;95575.13;;;16.68;42.77
78210;BME280;67485;48.816;9.930;2024-03-02T12:49:14;95568.66;;;15.69;43.83
78210;BME280;67485;48.816;9.930;2024-03-02T12:51:43;95562.88;;;15.50;45.34
78210;BME280;67485;48.816;9.930;2024-03-02T12:54:11;95569.94;;;15.77;46.88
78210;BME280;67485;48.816;9.930;2024-03-02T12:56:37;95565.22;;;15.95;46.70
78210;BME280;67485;48.816;9.930;2024-03-02T12:59:04;95564.34;;;15.81;46.01
78210;BME280;67485;48.816;9.930;2024-03-02T13:01:30;95563.50;;;15.40;45.63
78210;BME280;67485;48.816;9.930;2024-03-02T13:03:57;95566.13;;;14.86;43.77
78210;BME280;67485;48.816;9.930;2024-03-02T13:06:24;95571.19;;;14.76;47.37
78210;BME280;67485;48.816;9.930;2024-03-02T13:08:53;95563.19;;;14.49;47.67